Time;durP1;ratioP1;P1;durP2;ratioP2;P2;SDS_P1;SDS_P2;PMS_P1;PMS_P2;Temp;Humidity;BMP_temperature;BMP_pressure;BME280_temperature;BME280_humidity;BME280_pressure;Samples;Min_cycle;Max_cycle;Signal;HPM_P1;HPM_P2
2021/01/10 00:00:36;;;;;;;0.40;0.40;;;2.30;96.50;;;6.55;77.05;102476.63;5017696;28;97979;-74
2021/01/10 00:03:06;;;;;;;3.33;0.70;;;2.30;96.50;;;6.50;76.98;102473.88;5018755;28;97695;-74
2021/01/10 00:05:36;;;;;;;2.10;0.80;;;2.30;96.50;;;6.40;77.39;102481.59;5011458;28;97624;-73
2021/01/10 00:08:07;;;;;;;4.10;1.70;;;2.20;96.50;;;6.41;76.93;102485.09;5019858;27;96760;-73
2021/01/10 00:10:35;;;;;;;0.50;0.50;;;2.20;96.50;;;6.40;76.88;102478.16;5018526;27;98015;-74
2021/01/10 00:13:05;;;;;;;0.20;0.20;;;2.20;96.50;;;6.35;77.68;102480.69;5013556;28;97053;-73
2021/01/10 00:15:34;;;;;;;1.55;1.25;;;2.20;96.50;;;6.31;76.70;102479.53;5019654;28;97406;-73
2021/01/10 00:18:05;;;;;;;0.98;0.43;;;2.20;96.50;;;6.13;77.12;102470.81;5017822;27;96871;-73
2021/01/10 00:20:35;;;;;;;2.35;0.57;;;2.20;96.50;;;6.04;76.71;102478.34;5002547;28;98064;-73
2021/01/10 00:23:04;;;;;;;1.90;0.90;;;2.10;96.40;;;6.06;77.82;102472.78;5005039;28;96826;-73
2021/01/10 00:25:32;;;;;;;0.47;0.47;;;2.10;96.40;;;6.04;76.63;102472.22;5019776;28;96786;-73
2021/01/10 00:27:59;;;;;;;1.25;1.15;;;2.00;96.40;;;6.13;77.17;102481.47;5016862;28;96795;-73
2021/01/10 00:30:32;;;;;;;0.50;0.50;;;2.00;96.40;;;6.18;77.02;102476.28;5010908;28;98105;-73
2021/01/10 00:33:02;;;;;;;1.15;1.00;;;2.00;96.40;;;6.17;76.79;102483.44;5020543;27;97720;-73
2021/01/10 00:35:31;;;;;;;0.93;0.90;;;2.00;96.40;;;6.20;77.82;102488.31;5019239;28;97408;-73
2021/01/10 00:37:59;;;;;;;2.38;1.23;;;2.00;96.40;;;6.20;76.97;102483.00;4998821;28;96806;-73
2021/01/10 00:40:30;;;;;;;4.00;1.25;;;2.00;96.70;;;6.30;77.72;102493.88;5027122;27;98141;-73
2021/01/10 00:42:58;;;;;;;0.32;0.32;;;2.10;96.50;;;6.25;77.75;102491.91;5017588;28;97621;-73
2021/01/10 00:45:26;;;;;;;1.50;1.40;;;2.00;96.40;;;6.30;77.90;102493.88;5017199;27;97167;-73
2021/01/10 00:47:54;;;;;;;2.00;1.25;;;2.10;96.50;;;6.29;78.01;102487.75;5015270;28;96686;-74
2021/01/10 00:50:37;;;;;;;1.97;0.80;;;2.00;96.40;;;6.34;77.06;102492.38;5023625;27;97106;-73
2021/01/10 00:53:07;;;;;;;0.30;0.30;;;2.10;96.50;;;6.31;78.06;102492.84;5023254;28;98708;-73
2021/01/10 00:55:39;;;;;;;0.38;0.38;;;2.10;96.50;;;6.40;77.39;102497.56;5018711;28;96704;-73
2021/01/10 00:58:07;;;;;;;1.30;1.27;;;2.10;96.50;;;6.50;77.71;102499.66;5024564;28;97330;-73
2021/01/10 01:00:35;;;;;;;16.42;1.83;;;2.10;96.50;;;6.51;76.35;102496.78;5017793;28;97852;-73
2021/01/10 01:03:05;;;;;;;0.65;0.65;;;2.10;96.50;;;6.49;77.03;102492.72;5014056;27;97652;-73
2021/01/10 01:05:33;;;;;;;10.18;3.08;;;2.10;96.50;;;6.46;77.10;102496.69;5023793;28;97060;-73
2021/01/10 01:08:06;;;;;;;0.45;0.35;;;2.20;96.50;;;6.45;77.47;102494.22;5024704;28;96828;-73
2021/01/10 01:10:45;;;;;;;0.25;0.25;;;2.20;96.50;;;6.46;77.28;102501.19;5015590;28;97402;-73
2021/01/10 01:13:13;;;;;;;0.43;0.43;;;2.20;96.50;;;6.47;77.18;102497.47;5014155;28;97681;-73
2021/01/10 01:15:41;;;;;;;0.57;0.57;;;2.20;96.50;;;6.52;77.52;102497.59;5024989;28;96692;-73
2021/01/10 01:18:09;;;;;;;5.50;2.47;;;2.20;96.50;;;6.55;76.65;102499.78;5025079;28;96894;-74
2021/01/10 01:20:37;;;;;;;0.80;0.80;;;2.20;96.50;;;6.61;77.13;102499.66;5018673;27;97449;-73
2021/01/10 01:23:05;;;;;;;0.30;0.30;;;2.20;96.50;;;6.58;77.35;102501.97;5014950;27;97035;-73
2021/01/10 01:25:44;;;;;;;2.67;2.28;;;2.20;96.50;;;6.53;77.33;102492.03;5025731;28;97631;-73
2021/01/10 01:28:12;;;;;;;1.13;1.02;;;2.20;96.50;;;6.48;77.33;102496.44;5014434;27;97475;-73
2021/01/10 01:30:39;;;;;;;0.10;0.10;;;2.20;96.50;;;6.52;77.20;102498.41;5018844;27;96849;-73
2021/01/10 01:33:07;;;;;;;2.40;2.20;;;2.20;96.50;;;6.52;76.49;102498.41;5016845;27;98254;-73
2021/01/10 01:35:35;;;;;;;0.57;0.57;;;2.20;96.50;;;6.46;77.49;102504.66;5016619;27;96877;-73
2021/01/10 01:38:05;;;;;;;4.88;0.90;;;2.20;96.50;;;6.34;77.10;102503.84;5025829;28;96852;-73
2021/01/10 01:40:33;;;;;;;0.10;0.10;;;2.10;96.50;;;6.31;76.43;102501.63;5012137;28;97348;-73
2021/01/10 01:43:08;;;;;;;0.43;0.43;;;2.10;96.50;;;6.29;76.04;102509.03;5018061;27;97909;-73
2021/01/10 01:45:35;;;;;;;1.58;0.95;;;2.10;96.50;;;6.18;76.28;102506.38;5006529;28;97662;-73
2021/01/10 01:48:07;;;;;;;0.90;0.90;;;2.00;96.40;;;5.96;76.23;102513.25;5014717;28;96964;-73
2021/01/10 01:50:34;;;;;;;0.32;0.30;;;1.90;96.30;;;6.00;75.43;102514.41;5009801;28;99114;-73
2021/01/10 01:53:06;;;;;;;0.60;0.60;;;1.90;96.30;;;5.91;75.69;102510.47;5016567;28;97899;-73
2021/01/10 01:55:36;;;;;;;0.40;0.40;;;1.80;96.20;;;5.87;75.41;102511.97;5019803;27;96732;-73
2021/01/10 01:58:06;;;;;;;0.30;0.30;;;1.70;96.20;;;5.66;75.26;102512.44;5017667;28;96843;-73
2021/01/10 02:00:33;;;;;;;1.90;0.82;;;1.60;96.10;;;5.63;75.05;102507.56;5014188;28;98030;-73
2021/01/10 02:03:04;;;;;;;0.28;0.28;;;1.60;96.00;;;5.55;74.88;102505.25;5006322;28;97165;-73
2021/01/10 02:05:37;;;;;;;0.60;0.60;;;1.50;95.90;;;5.42;75.38;102505.44;5015951;27;96778;-73
2021/01/10 02:08:10;;;;;;;0.20;0.20;;;1.40;95.80;;;5.29;75.22;102510.09;5017473;27;97188;-73
2021/01/10 02:10:42;;;;;;;0.40;0.40;;;1.30;95.70;;;5.22;74.81;102507.50;5005795;28;97799;-73
2021/01/10 02:13:16;;;;;;;0.75;0.75;;;1.20;95.60;;;5.09;75.71;102504.19;5016699;27;96873;-73
2021/01/10 02:15:47;;;;;;;2.15;0.60;;;1.10;95.60;;;5.10;75.22;102503.16;5018000;27;96715;-73
2021/01/10 02:18:16;;;;;;;0.43;0.35;;;1.10;95.60;;;5.04;75.29;102504.06;5013738;28;96649;-73
2021/01/10 02:20:45;;;;;;;0.75;0.75;;;1.00;95.50;;;5.00;75.13;102498.38;5018397;28;97846;-73
2021/01/10 02:23:20;;;;;;;1.13;1.02;;;1.00;95.50;;;4.93;75.13;102505.59;5023324;28;98363;-73
2021/01/10 02:25:50;;;;;;;0.28;0.28;;;0.90;95.50;;;4.85;75.04;102492.63;5022313;28;97052;-73
2021/01/10 02:28:24;;;;;;;1.45;0.98;;;0.80;95.40;;;4.81;74.93;102496.78;5020933;27;96928;-73
2021/01/10 02:30:54;;;;;;;0.30;0.30;;;0.80;95.40;;;4.84;75.08;102490.19;5025111;28;97104;-72
2021/01/10 02:33:32;;;;;;;0.20;0.20;;;0.70;95.40;;;4.76;75.25;102493.13;5025384;27;97597;-72
2021/01/10 02:36:15;;;;;;;2.92;1.98;;;0.70;95.40;;;4.58;75.18;102485.97;5022004;28;96827;-72
2021/01/10 02:38:49;;;;;;;10.38;1.30;;;0.60;95.40;;;4.58;75.10;102485.97;5016538;27;96895;-72
2021/01/10 02:41:30;;;;;;;0.85;0.85;;;0.60;95.40;;;4.59;75.24;102497.38;5022022;28;96919;-72
2021/01/10 02:44:16;;;;;;;0.30;0.30;;;0.50;95.40;;;4.47;75.19;102496.50;5019934;28;97564;-72
2021/01/10 02:46:50;;;;;;;1.75;1.65;;;0.50;95.70;;;4.50;74.80;102492.56;5013697;28;97797;-71
2021/01/10 02:49:19;;;;;;;0.10;0.10;;;0.40;95.40;;;4.48;75.31;102492.81;5008333;28;97771;-72
2021/01/10 02:51:48;;;;;;;0.32;0.30;;;0.40;95.40;;;4.37;74.94;102493.53;5008186;28;97877;-71
2021/01/10 02:54:19;;;;;;;0.38;0.38;;;0.40;95.70;;;4.35;75.42;102490.25;5017031;28;97978;-71
2021/01/10 02:56:56;;;;;;;1.17;1.02;;;0.30;95.40;;;4.29;75.43;102485.03;5019853;27;97368;-71
2021/01/10 02:59:30;;;;;;;0.60;0.60;;;0.30;95.40;;;4.21;75.66;102486.13;5020420;28;96889;-72
2021/01/10 03:02:04;;;;;;;0.20;0.20;;;0.20;95.40;;;4.17;75.07;102492.06;5020701;28;97539;-71
2021/01/10 03:04:36;;;;;;;0.85;0.85;;;0.20;95.30;;;4.14;75.47;102489.84;5020810;28;97625;-72
2021/01/10 03:07:07;;;;;;;0.40;0.40;;;0.20;95.30;;;4.12;76.07;102482.13;5009395;28;96794;-71
2021/01/10 03:09:35;;;;;;;6.65;1.35;;;0.10;95.30;;;4.12;75.53;102481.28;5007559;28;97051;-71
2021/01/10 03:12:25;;;;;;;0.85;0.85;;;0.10;95.30;;;4.06;75.93;102479.50;5016585;27;97656;-71
2021/01/10 03:14:54;;;;;;;0.47;0.47;;;0.10;95.30;;;4.06;75.04;102475.03;5021594;27;97732;-72
2021/01/10 03:17:35;;;;;;;0.40;0.40;;;0.00;95.30;;;4.03;75.42;102479.94;5025406;27;96728;-71
2021/01/10 03:20:09;;;;;;;2.08;1.30;;;0.00;95.30;;;4.07;75.16;102476.66;5017809;28;97540;-72
2021/01/10 03:22:37;;;;;;;1.77;0.65;;;-0.10;95.30;;;3.94;75.57;102476.75;5021225;27;96942;-72
2021/01/10 03:25:10;;;;;;;0.28;0.28;;;-0.10;95.60;;;3.89;75.61;102484.53;5017730;27;97659;-71
2021/01/10 03:27:39;;;;;;;0.40;0.40;;;-0.10;95.30;;;3.89;75.85;102471.28;5027167;28;97385;-71
2021/01/10 03:30:16;;;;;;;1.38;0.75;;;-0.10;95.30;;;3.90;75.06;102470.25;5021466;28;97257;-72
2021/01/10 03:32:45;;;;;;;0.98;0.75;;;-0.20;95.30;;;3.88;75.09;102468.81;5026376;28;98047;-71
2021/01/10 03:35:15;;;;;;;0.45;0.43;;;-0.20;95.30;;;3.84;75.23;102480.88;5014489;28;97753;-72
2021/01/10 03:37:44;;;;;;;1.55;0.68;;;-0.20;95.30;;;3.89;74.35;102481.06;5025462;27;96825;-72
2021/01/10 03:40:14;;;;;;;0.50;0.47;;;-0.20;95.30;;;3.84;74.65;102465.00;5002993;28;97069;-72
2021/01/10 03:42:43;;;;;;;1.70;0.60;;;-0.30;95.30;;;3.87;74.78;102460.06;5022135;28;98310;-71
2021/01/10 03:45:16;;;;;;;15.40;1.13;;;-0.30;95.30;;;3.91;74.16;102469.22;5016979;28;98069;-71
2021/01/10 03:47:45;;;;;;;0.20;0.20;;;-0.30;95.30;;;3.92;74.63;102472.69;5025919;28;97114;-72
2021/01/10 03:50:12;;;;;;;0.55;0.55;;;-0.30;95.30;;;3.85;74.28;102474.56;5027552;28;97013;-71
2021/01/10 03:52:40;;;;;;;0.30;0.30;;;-0.30;95.30;;;3.76;75.02;102465.25;5027082;28;97762;-71
2021/01/10 03:55:09;;;;;;;4.63;0.60;;;-0.40;95.30;;;3.75;74.28;102471.59;5026740;27;96823;-71
2021/01/10 03:57:39;;;;;;;0.82;0.63;;;-0.40;95.30;;;3.74;74.76;102468.09;5020880;27;96920;-72
2021/01/10 04:00:12;;;;;;;0.90;0.80;;;-0.40;95.30;;;3.69;75.82;102461.84;5026770;28;96891;-71
2021/01/10 04:02:39;;;;;;;1.00;1.00;;;-0.40;95.30;;;3.67;74.96;102458.59;5003088;28;98350;-71
2021/01/10 04:05:09;;;;;;;0.20;0.20;;;-0.40;95.40;;;3.71;75.70;102465.88;5018001;27;97463;-71
2021/01/10 04:07:37;;;;;;;0.30;0.30;;;-0.40;95.40;;;3.75;75.05;102458.34;5018868;27;97312;-71
2021/01/10 04:10:07;;;;;;;0.20;0.20;;;-0.40;95.40;;;3.76;75.30;102465.25;5018908;27;97453;-71
2021/01/10 04:12:35;;;;;;;2.15;0.70;;;-0.50;95.40;;;3.77;74.67;102477.47;5016246;27;98170;-71
2021/01/10 04:15:08;;;;;;;0.35;0.35;;;-0.50;95.40;;;3.72;75.37;102480.75;5023924;27;97703;-71
2021/01/10 04:17:36;;;;;;;0.30;0.30;;;-0.50;95.40;;;3.71;74.23;102476.50;5026476;28;97368;-71
2021/01/10 04:20:06;;;;;;;0.40;0.40;;;-0.50;95.40;;;3.73;73.87;102468.34;5026878;28;96966;-71
2021/01/10 04:22:34;;;;;;;15.48;0.73;;;-0.50;95.40;;;3.70;74.30;102476.72;5020710;27;97973;-71
2021/01/10 04:25:07;;;;;;;0.38;0.38;;;-0.50;95.40;;;3.68;74.27;102470.81;5016859;27;96724;-71
2021/01/10 04:27:34;;;;;;;0.30;0.30;;;-0.50;95.40;;;3.62;74.46;102467.19;5019009;27;97117;-71
2021/01/10 04:30:06;;;;;;;0.30;0.30;;;-0.60;95.30;;;3.63;73.85;102468.00;5016130;28;97005;-71
2021/01/10 04:32:34;;;;;;;0.25;0.25;;;-0.60;95.30;;;3.68;74.15;102471.63;5023009;27;96744;-71
2021/01/10 04:35:05;;;;;;;0.88;0.85;;;-0.60;95.30;;;3.66;74.62;102463.06;5011929;28;97762;-71
2021/01/10 04:37:33;;;;;;;1.35;1.27;;;-0.60;95.40;;;3.67;74.80;102469.19;5015250;28;97179;-71
2021/01/10 04:40:07;;;;;;;0.20;0.20;;;-0.60;95.40;;;3.63;74.95;102466.16;5006805;28;97158;-72
2021/01/10 04:42:39;;;;;;;3.50;1.95;;;-0.60;95.40;;;3.56;75.21;102464.56;5007823;28;96863;-71
2021/01/10 04:45:48;;;;;;;0.20;0.20;;;-0.60;95.50;;;3.64;74.28;102454.53;5019994;28;97602;-72
2021/01/10 04:48:22;;;;;;;0.57;0.30;;;-0.60;95.50;;;3.62;74.17;102455.78;4982893;28;96914;-72
2021/01/10 04:50:51;;;;;;;0.30;0.30;;;-0.60;95.50;;;3.60;74.01;102448.03;5016642;28;96777;-72
2021/01/10 04:53:21;;;;;;;0.40;0.40;;;-0.70;95.50;;;3.57;74.00;102459.06;5039776;27;97904;-72
2021/01/10 04:55:50;;;;;;;3.20;1.42;;;-0.70;95.50;;;3.55;73.86;102447.88;5043169;27;97720;-72
2021/01/10 04:58:18;;;;;;;1.00;0.60;;;-0.70;95.50;;;3.54;75.02;102454.19;5026909;27;96746;-72
2021/01/10 05:00:47;;;;;;;0.28;0.28;;;-0.70;95.50;;;3.47;74.73;102458.72;5019495;27;96903;-72
2021/01/10 05:03:16;;;;;;;0.28;0.28;;;-0.80;95.40;;;3.44;73.97;102458.34;5017741;28;96990;-72
2021/01/10 05:05:46;;;;;;;1.30;1.20;;;-0.80;95.40;;;3.44;74.94;102463.63;5016900;28;97664;-72
2021/01/10 05:08:14;;;;;;;0.40;0.40;;;-0.80;95.50;;;3.42;74.83;102455.88;5038900;27;96724;-72
2021/01/10 05:10:41;;;;;;;0.30;0.30;;;-0.80;95.50;;;3.48;74.64;102457.72;5015772;28;97442;-72
2021/01/10 05:13:10;;;;;;;0.30;0.30;;;-0.80;95.60;;;3.50;74.97;102455.66;5018307;27;97660;-71
2021/01/10 05:15:39;;;;;;;1.35;1.00;;;-0.80;95.60;;;3.48;74.45;102451.56;5024479;28;97720;-71
2021/01/10 05:18:07;;;;;;;0.45;0.45;;;-0.80;95.60;;;3.56;73.99;102456.63;5021494;28;97339;-72
2021/01/10 05:20:35;;;;;;;0.43;0.43;;;-0.80;95.90;;;3.56;73.83;102451.31;5005825;28;96672;-71
2021/01/10 05:23:04;;;;;;;0.30;0.30;;;-0.80;95.60;;;3.49;75.14;102458.50;5019522;28;97522;-71
2021/01/10 05:25:32;;;;;;;0.30;0.30;;;-0.80;95.60;;;3.35;74.64;102456.97;5018703;27;98746;-72
2021/01/10 05:28:05;;;;;;;0.40;0.40;;;-0.80;95.60;;;3.26;74.85;102455.56;5017884;28;97117;-72
2021/01/10 05:30:35;;;;;;;0.20;0.20;;;-0.80;95.60;;;3.24;74.61;102453.16;5017851;27;97574;-71
2021/01/10 05:33:07;;;;;;;0.28;0.28;;;-0.80;95.70;;;3.22;75.73;102452.56;5014157;27;97229;-71
2021/01/10 05:35:52;;;;;;;1.15;1.05;;;-0.80;95.60;;;3.13;75.77;102445.84;5018456;27;98027;-71
2021/01/10 05:38:32;;;;;;;0.63;0.63;;;-0.90;95.60;;;3.17;74.73;102448.91;5024232;28;96865;-71
2021/01/10 05:41:11;;;;;;;0.57;0.57;;;-0.90;95.70;;;3.23;75.37;102453.34;5016337;28;97245;-71
2021/01/10 05:43:59;;;;;;;1.55;1.45;;;-0.90;95.70;;;3.22;74.79;102449.06;5019120;28;98074;-71
2021/01/10 05:46:32;;;;;;;0.47;0.47;;;-0.90;95.70;;;3.24;75.11;102449.66;5019895;28;97467;-71
2021/01/10 05:49:02;;;;;;;0.32;0.32;;;-0.90;95.70;;;3.40;75.99;102446.53;5003458;28;96687;-71
2021/01/10 05:51:32;;;;;;;3.67;1.83;;;-0.90;95.80;;;3.44;75.80;102448.53;5039537;27;97358;-71
2021/01/10 05:54:02;;;;;;;1.10;0.73;;;-0.80;95.80;;;3.53;76.35;102446.44;5014105;28;97937;-71
2021/01/10 05:56:32;;;;;;;0.45;0.45;;;-0.80;95.80;;;3.54;75.68;102443.59;5010230;28;97728;-71
2021/01/10 05:59:00;;;;;;;0.50;0.50;;;-0.80;95.80;;;3.56;75.38;102452.16;5021884;28;96884;-71
2021/01/10 06:01:30;;;;;;;0.22;0.22;;;-0.70;95.90;;;3.53;75.97;102441.16;5017945;27;97932;-71
2021/01/10 06:03:59;;;;;;;8.27;1.25;;;-0.70;95.90;;;3.56;75.65;102448.66;5015039;28;98154;-71
2021/01/10 06:06:42;;;;;;;1.73;1.38;;;-0.70;95.90;;;3.55;75.47;102455.00;5024635;28;96769;-71
2021/01/10 06:09:11;;;;;;;2.50;0.57;;;-0.70;95.90;;;3.63;76.17;102446.81;5018627;28;96835;-71
2021/01/10 06:11:40;;;;;;;0.40;0.32;;;-0.60;95.90;;;3.54;76.12;102451.53;5024790;28;96717;-71
2021/01/10 06:14:07;;;;;;;0.70;0.70;;;-0.60;95.90;;;3.57;76.55;102455.59;5018493;28;98079;-71
2021/01/10 06:16:38;;;;;;;0.52;0.52;;;-0.60;95.90;;;3.67;75.59;102458.59;5017810;27;97666;-71
2021/01/10 06:19:12;;;;;;;0.35;0.35;;;-0.60;95.90;;;3.69;76.24;102445.94;5017518;28;96762;-71
2021/01/10 06:21:47;;;;;;;0.30;0.30;;;-0.60;95.90;;;3.75;75.47;102455.69;5005695;28;96797;-71
2021/01/10 06:24:18;;;;;;;0.28;0.28;;;-0.60;95.90;;;3.66;76.24;102457.78;5017375;28;97554;-71
2021/01/10 06:27:04;;;;;;;0.25;0.25;;;-0.60;95.90;;;3.62;76.30;102463.75;5016886;28;97688;-71
2021/01/10 06:29:40;;;;;;;1.08;0.82;;;-0.60;95.90;;;3.70;75.31;102448.38;5019863;28;97550;-71
2021/01/10 06:32:12;;;;;;;0.32;0.32;;;-0.60;95.90;;;3.61;75.66;102462.91;5021015;28;96740;-71
2021/01/10 06:34:42;;;;;;;0.77;0.77;;;-0.60;95.90;;;3.54;75.55;102453.38;5019731;27;97855;-71
2021/01/10 06:37:11;;;;;;;1.35;0.90;;;-0.60;95.90;;;3.46;75.73;102451.81;5018783;28;97158;-71
2021/01/10 06:39:47;;;;;;;0.60;0.60;;;-0.60;95.90;;;3.40;75.54;102452.63;5008488;28;96752;-71
2021/01/10 06:42:16;;;;;;;0.85;0.85;;;-0.60;95.90;;;3.34;76.28;102453.50;5019378;28;96820;-71
2021/01/10 06:44:51;;;;;;;2.05;1.48;;;-0.60;95.90;;;3.38;76.41;102453.88;5021487;27;97764;-71
2021/01/10 06:47:23;;;;;;;0.50;0.50;;;-0.60;95.90;;;3.40;75.49;102457.13;5016877;28;97788;-71
2021/01/10 06:49:53;;;;;;;1.27;1.13;;;-0.60;95.90;;;3.29;75.32;102458.63;5017021;28;96801;-71
2021/01/10 06:52:24;;;;;;;0.57;0.57;;;-0.60;95.90;;;3.19;75.65;102450.31;5021882;27;96951;-71
2021/01/10 06:54:54;;;;;;;0.30;0.30;;;-0.70;95.80;;;3.20;76.47;102449.31;5016826;28;97428;-71
2021/01/10 06:57:31;;;;;;;2.30;1.27;;;-0.70;96.00;;;3.30;75.46;102443.53;5027142;27;96945;-71
2021/01/10 07:00:09;;;;;;;0.47;0.47;;;-0.70;95.80;;;3.21;74.77;102450.09;4992492;28;96721;-71
2021/01/10 07:03:07;;;;;;;1.25;1.15;;;-0.80;95.70;;;3.30;74.56;102444.34;5017364;28;97214;-71
2021/01/10 07:06:08;;;;;;;0.50;0.50;;;-0.80;95.70;;;3.12;74.76;102441.56;5018988;28;96805;-71
2021/01/10 07:08:44;;;;;;;1.10;0.73;;;-0.80;95.70;;;3.00;76.44;102450.38;5018773;28;97258;-71
2021/01/10 07:11:36;;;;;;;0.65;0.65;;;-0.90;95.60;;;3.00;76.28;102449.59;5020045;27;97491;-71
2021/01/10 07:14:28;;;;;;;2.20;1.90;;;-0.90;95.70;;;3.15;75.62;102445.66;5012626;28;96871;-71
2021/01/10 07:17:18;;;;;;;0.90;0.90;;;-0.90;95.70;;;3.12;75.71;102449.53;5025450;28;97960;-71
2021/01/10 07:19:51;;;;;;;5.47;1.17;;;-1.00;95.60;;;3.14;74.42;102449.31;5019388;28;98012;-71
2021/01/10 07:22:31;;;;;;;0.70;0.70;;;-1.00;95.60;;;3.20;75.33;102454.59;5024622;27;97114;-71
2021/01/10 07:25:37;;;;;;;0.63;0.63;;;-1.00;95.60;;;3.17;75.65;102462.13;5025219;28;96772;-71
2021/01/10 07:28:37;;;;;;;0.52;0.52;;;-1.00;95.70;;;3.05;75.73;102459.34;5015853;28;96848;-72
2021/01/10 07:31:27;;;;;;;22.20;2.80;;;-1.00;95.70;;;3.16;75.65;102457.88;5025239;28;97989;-71
2021/01/10 07:34:11;;;;;;;1.25;0.55;;;-1.00;95.70;;;3.30;75.89;102462.06;5021400;27;96746;-71
2021/01/10 07:36:52;;;;;;;0.52;0.52;;;-0.90;95.80;;;3.35;76.77;102456.97;5008093;28;96766;-71
2021/01/10 07:39:35;;;;;;;0.52;0.52;;;-0.90;95.80;;;3.33;77.08;102462.47;5021438;27;97805;-71
2021/01/10 07:42:20;;;;;;;0.35;0.35;;;-0.90;95.80;;;3.41;76.00;102459.56;5018061;27;97400;-71
2021/01/10 07:44:51;;;;;;;1.30;0.70;;;-0.80;95.90;;;3.48;77.04;102464.81;5018984;27;97220;-71
2021/01/10 07:47:45;;;;;;;1.35;0.88;;;-0.80;95.90;;;3.59;75.84;102464.13;5020631;28;96924;-72
2021/01/10 07:50:23;;;;;;;3.10;1.20;;;-0.70;95.90;;;3.67;76.69;102469.19;5017056;27;97741;-71
2021/01/10 07:52:56;;;;;;;0.55;0.55;;;-0.70;95.90;;;3.78;76.17;102461.38;5021711;28;96732;-71
2021/01/10 07:55:29;;;;;;;;;;;-0.60;95.90;;;3.75;76.71;102467.13;5012551;28;96763;-71
2021/01/10 07:58:18;;;;;;;;;;;-0.60;95.90;;;3.80;77.02;102463.78;5019356;28;97318;-72
2021/01/10 08:00:53;;;;;;;0.95;0.95;;;-0.50;95.90;;;3.80;77.06;102471.75;5021909;28;98086;-72
2021/01/10 08:03:24;;;;;;;0.43;0.43;;;-0.50;95.90;;;3.84;76.72;102471.13;5018766;27;98272;-72
2021/01/10 08:06:05;;;;;;;0.30;0.30;;;-0.40;95.90;;;3.96;76.58;102474.69;5019177;28;97119;-71
2021/01/10 08:08:44;;;;;;;2.25;1.70;;;-0.40;95.90;;;4.01;76.37;102476.69;5018006;28;96772;-71
2021/01/10 08:11:30;;;;;;;0.50;0.50;;;-0.30;95.90;;;4.07;77.08;102474.00;5018781;28;97893;-72
2021/01/10 08:13:59;;;;;;;0.50;0.50;;;-0.20;96.00;;;4.10;77.06;102481.53;5019127;28;97092;-72
2021/01/10 08:16:33;;;;;;;0.55;0.52;;;-0.20;95.90;;;4.11;77.49;102469.06;5026513;28;97015;-72
2021/01/10 08:19:04;;;;;;;1.30;1.20;;;-0.10;95.90;;;4.20;76.34;102473.06;5026321;28;96872;-71
2021/01/10 08:21:33;;;;;;;0.77;0.77;;;-0.10;95.90;;;4.29;76.97;102474.41;5019327;28;98236;-72
2021/01/10 08:24:07;;;;;;;1.75;1.33;;;0.00;95.90;;;4.32;77.10;102481.94;5039488;27;97808;-72
2021/01/10 08:26:39;;;;;;;0.80;0.80;;;0.00;95.90;;;4.34;76.52;102474.56;5023257;28;96728;-72
2021/01/10 08:29:07;;;;;;;1.48;1.38;;;0.10;95.90;;;4.42;77.39;102484.91;5017273;28;96877;-71
2021/01/10 08:31:37;;;;;;;2.60;0.95;;;0.20;96.00;;;4.53;76.77;102481.56;5016012;28;97208;-72
2021/01/10 08:34:13;;;;;;;;;;;0.20;95.90;;;4.63;76.67;102485.28;5025707;28;98296;-72
2021/01/10 08:36:46;;;;;;;0.55;0.55;;;0.30;95.90;;;4.69;76.43;102487.88;5024575;28;96890;-72
2021/01/10 08:39:18;;;;;;;0.70;0.70;;;0.30;95.90;;;4.84;75.94;102484.88;5018767;28;96927;-72
2021/01/10 08:41:48;;;;;;;;;;;0.30;95.90;;;4.87;76.38;102481.78;5018562;27;98500;-71
2021/01/10 08:44:20;;;;;;;2.83;2.03;;;0.40;95.90;;;4.94;75.80;102480.69;5018544;28;98767;-72
2021/01/10 08:46:51;;;;;;;2.58;1.08;;;0.40;95.90;;;4.96;76.05;102480.47;5027314;27;97909;-72
2021/01/10 08:49:24;;;;;;;1.35;1.25;;;0.50;95.90;;;5.07;76.20;102480.50;5017727;27;97436;-72
2021/01/10 08:51:55;;;;;;;3.85;2.17;;;0.50;95.90;;;5.03;75.96;102489.94;5022758;28;97943;-72
2021/01/10 08:54:27;;;;;;;0.90;0.77;;;0.60;95.90;;;5.11;76.07;102481.72;5042020;27;97673;-71
2021/01/10 08:56:56;;;;;;;1.85;1.60;;;0.70;95.90;;;5.10;76.06;102482.75;5023870;28;96677;-71
2021/01/10 08:59:37;;;;;;;14.75;3.58;;;0.80;96.20;;;5.16;76.33;102484.50;5024042;28;97288;-71
2021/01/10 09:02:07;;;;;;;3.28;1.83;;;0.80;95.90;;;5.31;75.89;102489.44;5014828;28;96930;-72
2021/01/10 09:04:43;;;;;;;1.45;1.35;;;0.90;95.90;;;5.44;75.53;102482.09;5019047;27;97713;-72
2021/01/10 09:07:24;;;;;;;4.10;1.33;;;0.90;95.80;;;5.59;75.53;102490.44;5023987;27;97030;-71
2021/01/10 09:09:58;;;;;;;1.80;1.23;;;1.00;95.80;;;5.69;75.15;102484.59;5021129;28;97419;-71
2021/01/10 09:12:35;;;;;;;1.77;1.40;;;1.10;95.80;;;5.77;75.16;102485.09;5014080;28;97786;-71
2021/01/10 09:15:13;;;;;;;1.60;1.45;;;1.20;95.80;;;5.84;75.72;102487.66;5010584;28;98117;-71
2021/01/10 09:17:48;;;;;;;2.80;2.60;;;1.30;95.70;;;5.92;75.46;102490.81;5012923;28;98388;-72
2021/01/10 09:20:25;;;;;;;7.93;1.52;;;1.40;95.70;;;6.01;75.33;102489.47;5015187;28;97254;-72
2021/01/10 09:22:59;;;;;;;3.88;2.15;;;1.40;95.70;;;6.01;75.57;102488.63;5016397;28;98889;-72
2021/01/10 09:25:34;;;;;;;2.17;1.98;;;1.50;95.70;;;6.05;75.88;102487.97;5015029;27;97279;-71
2021/01/10 09:28:08;;;;;;;1.83;1.67;;;1.50;95.70;;;6.13;75.32;102490.28;5018219;27;97224;-71
2021/01/10 09:30:44;;;;;;;5.53;2.05;;;1.60;95.70;;;6.19;74.96;102487.53;5013721;28;97666;-72
2021/01/10 09:33:13;;;;;;;5.90;2.45;;;1.60;95.60;;;6.28;75.28;102491.44;5017936;27;97888;-72
2021/01/10 09:35:48;;;;;;;3.70;2.05;;;1.70;95.60;;;6.36;74.35;102491.09;5021780;28;97121;-72
2021/01/10 09:38:20;;;;;;;1.58;1.48;;;1.70;95.60;;;6.38;74.88;102491.69;5010499;28;97457;-72
2021/01/10 09:41:04;;;;;;;6.68;2.83;;;1.80;95.60;;;6.50;75.11;102494.34;5011197;27;96964;-72
2021/01/10 09:43:43;;;;;;;1.27;1.27;;;1.90;95.60;;;6.53;74.59;102492.03;5010686;28;98021;-72
2021/01/10 09:46:32;;;;;;;1.90;1.55;;;1.90;95.50;;;6.64;74.79;102491.22;5007598;28;96891;-72
2021/01/10 09:49:05;;;;;;;2.20;1.92;;;2.00;95.50;;;6.74;74.16;102494.09;5010977;28;97098;-72
2021/01/10 09:51:41;;;;;;;17.40;5.40;;;2.00;95.50;;;6.86;74.81;102499.41;5013729;27;97524;-72
2021/01/10 09:54:14;;;;;;;2.33;2.13;;;2.10;95.50;;;6.89;74.25;102501.59;5014699;28;97912;-72
2021/01/10 09:56:51;;;;;;;3.47;3.00;;;2.10;95.50;;;6.94;73.91;102502.53;5008807;27;97635;-72
2021/01/10 09:59:43;;;;;;;5.35;3.00;;;2.20;95.70;;;6.98;73.72;102497.56;5012651;28;96806;-72
2021/01/10 10:02:20;;;;;;;1.55;1.45;;;2.30;95.40;;;7.00;74.57;102500.78;5009414;28;96809;-72
2021/01/10 10:04:50;;;;;;;7.78;3.13;;;2.20;95.40;;;6.97;75.09;102501.25;5015100;28;97469;-72
2021/01/10 10:07:34;;;;;;;3.13;2.47;;;2.30;95.40;;;7.06;74.43;102494.50;5014949;28;97953;-73
2021/01/10 10:10:07;;;;;;;3.38;2.10;;;2.30;95.40;;;7.15;74.17;102493.91;5010636;28;96831;-73
2021/01/10 10:12:35;;;;;;;2.38;1.65;;;2.40;95.40;;;7.23;74.26;102490.06;5011615;28;97276;-73
2021/01/10 10:15:09;;;;;;;4.15;2.42;;;2.40;95.40;;;7.35;73.50;102488.97;5008405;28;97826;-73
2021/01/10 10:17:39;;;;;;;5.60;2.38;;;2.50;95.40;;;7.37;74.16;102489.56;5012443;28;97071;-73
2021/01/10 10:20:09;;;;;;;4.78;2.40;;;2.50;95.40;;;7.38;74.60;102487.69;5013205;28;97292;-73
2021/01/10 10:22:40;;;;;;;3.92;2.85;;;2.50;95.30;;;7.37;74.23;102486.91;5002212;28;97184;-73
2021/01/10 10:25:12;;;;;;;5.28;4.15;;;2.60;95.40;;;7.45;73.82;102483.84;5013057;28;98403;-73
2021/01/10 10:27:57;;;;;;;2.72;1.35;;;2.60;95.30;;;7.53;74.14;102482.66;5011090;28;97932;-73
2021/01/10 10:30:30;;;;;;;1.73;1.42;;;2.70;95.40;;;7.60;74.16;102485.97;5010145;27;97199;-74
2021/01/10 10:32:59;;;;;;;2.58;2.20;;;2.70;95.40;;;7.73;73.82;102479.28;5017306;28;97237;-74
2021/01/10 10:35:31;;;;;;;4.97;2.90;;;2.80;95.40;;;7.83;73.34;102482.16;5007911;28;98652;-74
2021/01/10 10:38:00;;;;;;;4.50;2.70;;;2.80;95.40;;;7.94;73.07;102473.25;5004307;28;97625;-74
2021/01/10 10:40:32;;;;;;;3.27;2.60;;;2.90;95.40;;;8.06;73.34;102465.97;5008038;28;97205;-74
2021/01/10 10:42:59;;;;;;;3.25;2.40;;;3.00;95.40;;;8.23;72.41;102466.81;5012737;28;97326;-74
2021/01/10 10:45:33;;;;;;;2.00;1.60;;;3.10;95.30;;;8.21;72.67;102471.59;5008316;27;98061;-74
2021/01/10 10:48:06;;;;;;;3.30;2.03;;;3.20;95.30;;;8.33;72.71;102469.63;5008110;28;97701;-74